Time;durP1;ratioP1;P1;durP2;ratioP2;P2;SDS_P1;SDS_P2;PMS_P1;PMS_P2;Temp;Humidity;BMP_temperature;BMP_pressure;BME280_temperature;BME280_humidity;BME280_pressure;Samples;Min_cycle;Max_cycle;Signal;HPM_P1;HPM_P2
2023/12/01 00:00:30;;;;;;;4.90;0.10;;;31.20;62.70;;;;;;5015182;28;20095;-71
2023/12/01 00:02:57;;;;;;;0.55;0.30;;;31.50;65.90;;;;;;5036269;28;20133;-70
2023/12/01 00:05:24;;;;;;;0.40;0.10;;;31.90;66.20;;;;;;5030343;28;20028;-70
2023/12/01 00:07:52;;;;;;;1.48;0.32;;;32.20;66.50;;;;;;5032872;28;20320;-70
2023/12/01 00:10:19;;;;;;;3.47;0.20;;;32.10;63.10;;;;;;5033030;28;20029;-71
2023/12/01 00:12:46;;;;;;;1.20;0.20;;;32.10;60.70;;;;;;5028245;28;20025;-71
2023/12/01 00:15:14;;;;;;;1.40;0.30;;;31.80;63.00;;;;;;5032249;28;20029;-72
2023/12/01 00:17:41;;;;;;;5.10;0.20;;;31.80;64.00;;;;;;5033037;28;20018;-71
2023/12/01 00:20:09;;;;;;;0.65;0.20;;;32.00;61.00;;;;;;5012347;28;20029;-70
2023/12/01 00:22:36;;;;;;;1.25;0.40;;;32.00;59.40;;;;;;5030592;28;20025;-71
2023/12/01 00:25:04;;;;;;;0.80;0.30;;;31.70;60.40;;;;;;5024685;28;20038;-70
2023/12/01 00:27:31;;;;;;;2.28;0.40;;;31.90;61.00;;;;;;5025998;28;20029;-71
2023/12/01 00:29:58;;;;;;;0.68;0.30;;;32.20;65.00;;;;;;5032710;28;20076;-70
2023/12/01 00:32:26;;;;;;;3.90;0.30;;;32.10;62.80;;;;;;5036719;28;20056;-71
2023/12/01 00:34:53;;;;;;;3.40;0.20;;;31.90;61.70;;;;;;5030271;28;20025;-72
2023/12/01 00:37:20;;;;;;;0.73;0.28;;;32.00;64.00;;;;;;5034145;28;20116;-71
2023/12/01 00:39:48;;;;;;;2.80;0.20;;;32.50;62.20;;;;;;5031666;28;20022;-70
2023/12/01 00:42:15;;;;;;;1.10;0.30;;;31.70;60.80;;;;;;5029289;28;20064;-70
2023/12/01 00:44:45;;;;;;;0.47;0.10;;;31.30;60.70;;;;;;5030347;28;20492;-70
2023/12/01 00:47:12;;;;;;;1.73;0.20;;;31.60;63.10;;;;;;5014378;28;20029;-71
2023/12/01 00:49:39;;;;;;;1.85;0.30;;;32.20;61.40;;;;;;5028826;28;20181;-70
2023/12/01 00:52:07;;;;;;;1.50;0.47;;;32.50;58.20;;;;;;5027072;28;20433;-70
2023/12/01 00:54:34;;;;;;;2.28;0.38;;;32.40;58.60;;;;;;5025013;28;20029;-69
2023/12/01 00:57:02;;;;;;;2.30;0.25;;;31.90;58.50;;;;;;5029286;28;20037;-69
2023/12/01 00:59:29;;;;;;;1.98;0.40;;;31.40;59.50;;;;;;5026508;28;20058;-70
2023/12/01 01:01:56;;;;;;;0.57;0.30;;;31.20;60.70;;;;;;5030201;28;20115;-70
2023/12/01 01:04:24;;;;;;;2.63;0.30;;;30.80;61.10;;;;;;5030121;28;20045;-70
2023/12/01 01:06:51;;;;;;;0.95;0.20;;;31.40;60.40;;;;;;5030148;28;20532;-69
2023/12/01 01:09:19;;;;;;;3.80;0.20;;;32.00;62.00;;;;;;5034417;28;20026;-70
2023/12/01 01:11:46;;;;;;;3.15;0.40;;;32.40;57.90;;;;;;5016636;28;20467;-70
2023/12/01 01:14:14;;;;;;;1.38;0.63;;;32.70;57.40;;;;;;5031513;28;20104;-70
2023/12/01 01:16:41;;;;;;;2.92;0.28;;;32.90;57.30;;;;;;5010304;28;20036;-70
2023/12/01 01:19:08;;;;;;;0.80;0.20;;;33.30;59.30;;;;;;5034107;28;20091;-69
2023/12/01 01:21:36;;;;;;;2.50;0.50;;;34.10;59.50;;;;;;5031958;28;20040;-69
2023/12/01 01:24:03;;;;;;;0.95;0.30;;;34.60;59.40;;;;;;5037515;28;20454;-70
2023/12/01 01:26:31;;;;;;;1.65;0.30;;;34.50;55.80;;;;;;5030063;28;20071;-68
2023/12/01 01:28:59;;;;;;;1.95;0.22;;;34.70;53.00;;;;;;5015902;28;20076;-71
2023/12/01 01:31:26;;;;;;;2.13;0.10;;;34.20;54.50;;;;;;5037788;28;20108;-69
2023/12/01 01:33:53;;;;;;;0.80;0.20;;;34.00;55.40;;;;;;5030449;28;20025;-68
2023/12/01 01:36:21;;;;;;;1.35;0.32;;;33.80;53.60;;;;;;5018819;28;20033;-71
2023/12/01 01:38:51;;;;;;;4.95;0.40;;;32.30;53.50;;;;;;5017500;28;20460;-71
2023/12/01 01:41:18;;;;;;;2.58;0.43;;;31.90;56.40;;;;;;5030622;28;20066;-72
2023/12/01 01:43:46;;;;;;;1.30;0.32;;;32.40;55.90;;;;;;5040068;28;20033;-71
2023/12/01 01:46:14;;;;;;;0.45;0.40;;;31.70;55.10;;;;;;5035627;28;20033;-71
2023/12/01 01:48:43;;;;;;;0.70;0.20;;;31.30;57.10;;;;;;5016551;28;20402;-71
2023/12/01 01:51:11;;;;;;;0.90;0.30;;;31.10;56.70;;;;;;5036480;28;20025;-71
2023/12/01 01:53:42;;;;;;;1.23;0.20;;;30.50;57.40;;;;;;5020266;28;20030;-71
2023/12/01 01:56:15;;;;;;;1.95;0.40;;;30.30;59.40;;;;;;5032948;28;20030;-71
2023/12/01 01:58:43;;;;;;;0.50;0.25;;;30.40;59.90;;;;;;5035509;28;20147;-70
2023/12/01 02:01:10;;;;;;;0.63;0.20;;;30.70;59.20;;;;;;5035325;28;20045;-70
2023/12/01 02:03:38;;;;;;;3.38;0.35;;;31.00;57.10;;;;;;5011457;28;20132;-70
2023/12/01 02:06:09;;;;;;;1.50;0.60;;;31.70;58.30;;;;;;5035801;28;20083;-68
2023/12/01 02:08:37;;;;;;;2.42;0.30;;;32.30;55.80;;;;;;5028157;28;20055;-69
2023/12/01 02:11:04;;;;;;;2.45;0.22;;;32.50;56.40;;;;;;5027489;28;20101;-70
2023/12/01 02:13:32;;;;;;;1.77;0.30;;;31.60;56.10;;;;;;5012985;28;20037;-70
2023/12/01 02:16:02;;;;;;;0.90;0.30;;;31.70;57.20;;;;;;5027590;28;20036;-69
2023/12/01 02:18:31;;;;;;;2.90;0.30;;;32.00;58.10;;;;;;5033646;28;20498;-71
2023/12/01 02:21:00;;;;;;;3.80;0.30;;;32.60;57.60;;;;;;5029110;28;20021;-70
2023/12/01 02:23:27;;;;;;;0.68;0.20;;;33.40;53.20;;;;;;5029786;28;20486;-72
2023/12/01 02:25:55;;;;;;;0.80;0.28;;;33.00;53.40;;;;;;5026934;28;20044;-70
2023/12/01 02:28:22;;;;;;;2.67;0.35;;;33.10;53.80;;;;;;5028846;28;20044;-71
2023/12/01 02:30:54;;;;;;;4.38;0.40;;;33.50;54.00;;;;;;5024611;28;20064;-70
2023/12/01 02:33:23;;;;;;;1.75;0.20;;;33.80;53.50;;;;;;5026921;28;20029;-70
2023/12/01 02:35:52;;;;;;;3.92;0.30;;;34.30;53.00;;;;;;5026861;28;20032;-69
2023/12/01 02:38:20;;;;;;;0.82;0.40;;;34.50;52.60;;;;;;5005426;28;20478;-70
2023/12/01 02:40:51;;;;;;;1.90;0.28;;;34.70;51.40;;;;;;5028549;28;20067;-70
2023/12/01 02:43:20;;;;;;;1.25;0.20;;;34.80;52.40;;;;;;5027500;28;20037;-72
2023/12/01 02:45:48;;;;;;;2.45;0.20;;;35.20;55.40;;;;;;5028914;28;20072;-71
2023/12/01 02:48:19;;;;;;;0.65;0.20;;;35.20;52.70;;;;;;5032310;28;20060;-72
2023/12/01 02:50:46;;;;;;;1.80;0.40;;;35.50;52.00;;;;;;5016272;28;20431;-71
2023/12/01 02:53:18;;;;;;;0.47;0.28;;;35.70;50.90;;;;;;5029184;28;20026;-72
2023/12/01 02:55:46;;;;;;;1.45;0.17;;;35.70;53.40;;;;;;5025563;28;20530;-70
2023/12/01 02:58:13;;;;;;;1.35;0.10;;;36.10;50.70;;;;;;5030450;28;20376;-70
2023/12/01 03:00:43;;;;;;;2.58;0.30;;;36.30;51.20;;;;;;5011097;28;20359;-71
2023/12/01 03:03:11;;;;;;;3.17;0.40;;;35.70;49.90;;;;;;5022751;28;20060;-70
2023/12/01 03:05:38;;;;;;;1.10;0.25;;;35.50;49.70;;;;;;5029285;28;20119;-72
2023/12/01 03:08:06;;;;;;;0.77;0.20;;;35.60;51.40;;;;;;5030912;28;20037;-69
2023/12/01 03:10:34;;;;;;;0.68;0.22;;;35.60;49.60;;;;;;5028292;28;20037;-70
2023/12/01 03:13:01;;;;;;;0.98;0.30;;;35.80;51.90;;;;;;5028078;28;20075;-70
2023/12/01 03:15:29;;;;;;;1.35;0.28;;;35.90;48.80;;;;;;5030459;28;20045;-71
2023/12/01 03:17:56;;;;;;;6.78;1.27;;;36.20;50.10;;;;;;5027158;28;20036;-70
2023/12/01 03:20:27;;;;;;;6.32;1.35;;;35.60;55.10;;;;;;5031974;28;20029;-71
2023/12/01 03:22:55;;;;;;;4.55;1.17;;;34.60;57.80;;;;;;5013438;28;20057;-70
2023/12/01 03:25:22;;;;;;;7.97;1.27;;;33.70;57.90;;;;;;5028567;28;20411;-71
2023/12/01 03:27:50;;;;;;;7.78;0.98;;;33.30;57.80;;;;;;5029908;28;20022;-70
2023/12/01 03:30:21;;;;;;;2.20;0.88;;;32.40;59.80;;;;;;5029678;28;20041;-71
2023/12/01 03:32:50;;;;;;;6.20;1.35;;;31.60;61.50;;;;;;5029508;28;20033;-71
2023/12/01 03:35:24;;;;;;;5.38;0.70;;;31.10;62.50;;;;;;5030514;28;20029;-72
2023/12/01 03:37:58;;;;;;;8.02;1.27;;;30.80;64.10;;;;;;5007176;28;20052;-72
2023/12/01 03:40:27;;;;;;;4.65;0.90;;;31.30;63.90;;;;;;5032251;28;20462;-71
2023/12/01 03:42:54;;;;;;;7.43;0.82;;;31.90;63.30;;;;;;5027665;28;20071;-71
2023/12/01 03:45:22;;;;;;;4.10;0.75;;;31.80;64.00;;;;;;5026953;28;20387;-70
2023/12/01 03:47:51;;;;;;;8.85;1.30;;;32.10;63.20;;;;;;5026976;28;20055;-70
2023/12/01 03:50:18;;;;;;;3.38;1.10;;;32.40;63.40;;;;;;5024944;28;20037;-71
2023/12/01 03:52:51;;;;;;;2.22;0.90;;;32.50;62.90;;;;;;5024814;28;20033;-70
2023/12/01 03:55:19;;;;;;;4.20;0.98;;;32.40;62.90;;;;;;5001033;28;20135;-71
2023/12/01 03:57:46;;;;;;;8.15;1.25;;;32.10;63.60;;;;;;5029728;28;20028;-71
2023/12/01 04:00:16;;;;;;;3.78;0.90;;;32.00;64.70;;;;;;5028366;28;20099;-71
2023/12/01 04:02:45;;;;;;;10.52;1.23;;;32.00;64.60;;;;;;5028112;28;20459;-71
2023/12/01 04:05:18;;;;;;;4.13;1.00;;;32.00;64.60;;;;;;5031953;28;20049;-70
2023/12/01 04:07:46;;;;;;;8.00;1.30;;;32.00;64.50;;;;;;5029692;28;20034;-71
2023/12/01 04:10:14;;;;;;;4.60;0.55;;;32.00;64.70;;;;;;5024316;28;20427;-71
2023/12/01 04:12:45;;;;;;;10.60;1.02;;;31.50;64.30;;;;;;5031037;28;20041;-71
2023/12/01 04:15:16;;;;;;;3.03;0.93;;;31.20;64.90;;;;;;5014079;28;20273;-71
2023/12/01 04:17:46;;;;;;;5.72;1.48;;;30.80;65.30;;;;;;5030365;28;20022;-72
2023/12/01 04:20:22;;;;;;;10.32;1.20;;;30.30;66.10;;;;;;5034727;28;20025;-70
2023/12/01 04:23:00;;;;;;;3.75;0.63;;;29.90;67.30;;;;;;5036478;28;20025;-70
2023/12/01 04:25:28;;;;;;;3.90;0.80;;;29.80;67.90;;;;;;5035591;28;20068;-71
2023/12/01 04:27:58;;;;;;;4.13;0.82;;;29.70;68.20;;;;;;5029679;28;20141;-71
2023/12/01 04:30:26;;;;;;;6.28;0.70;;;29.80;68.10;;;;;;5030780;28;20506;-72
2023/12/01 04:32:54;;;;;;;4.90;1.08;;;29.80;68.00;;;;;;5032812;28;20040;-71
2023/12/01 04:35:23;;;;;;;6.05;1.33;;;29.70;68.70;;;;;;5031876;28;20083;-72
2023/12/01 04:37:51;;;;;;;5.95;1.00;;;29.60;69.20;;;;;;5030189;28;20033;-71
2023/12/01 04:40:18;;;;;;;4.18;0.70;;;29.70;68.70;;;;;;5034519;28;20075;-70
2023/12/01 04:42:50;;;;;;;6.00;0.70;;;30.20;68.70;;;;;;5020532;28;20043;-71
2023/12/01 04:45:20;;;;;;;9.00;0.90;;;30.60;68.10;;;;;;5012181;28;20043;-71
2023/12/01 04:47:52;;;;;;;2.08;0.80;;;30.80;67.40;;;;;;5030046;28;20068;-71
2023/12/01 04:50:23;;;;;;;3.03;0.60;;;30.70;68.00;;;;;;5028558;28;20036;-71
2023/12/01 04:52:54;;;;;;;4.35;1.17;;;30.50;67.90;;;;;;5029888;28;20116;-72
2023/12/01 04:55:26;;;;;;;3.90;0.90;;;30.20;68.50;;;;;;5020418;28;20022;-71
2023/12/01 04:57:58;;;;;;;5.65;0.93;;;30.20;69.60;;;;;;5026186;28;20036;-71
2023/12/01 05:00:27;;;;;;;2.38;0.65;;;30.40;69.40;;;;;;5027266;28;20111;-71
2023/12/01 05:03:00;;;;;;;7.93;1.05;;;30.40;69.30;;;;;;5022442;28;20064;-72
2023/12/01 05:05:28;;;;;;;3.15;0.82;;;30.20;70.00;;;;;;5029293;28;20163;-71
2023/12/01 05:07:58;;;;;;;3.63;0.80;;;30.10;70.00;;;;;;5015212;28;20116;-72
2023/12/01 05:10:27;;;;;;;3.88;0.55;;;30.10;70.10;;;;;;5027891;28;20068;-72
2023/12/01 05:13:05;;;;;;;6.65;0.85;;;30.00;70.10;;;;;;5041385;28;20124;-72
2023/12/01 05:15:34;;;;;;;4.10;0.75;;;29.80;70.60;;;;;;5032402;28;20029;-70
2023/12/01 05:18:07;;;;;;;3.55;0.85;;;29.70;71.40;;;;;;5033831;28;20064;-71
2023/12/01 05:20:35;;;;;;;2.90;0.80;;;29.70;71.00;;;;;;5038083;28;20032;-70
2023/12/01 05:23:09;;;;;;;2.00;0.60;;;29.60;71.90;;;;;;5015039;28;20036;-71
2023/12/01 05:25:41;;;;;;;2.33;0.50;;;29.30;72.20;;;;;;5034697;28;20079;-70
2023/12/01 05:28:09;;;;;;;4.47;0.90;;;29.10;72.60;;;;;;5033187;28;20028;-72
2023/12/01 05:30:40;;;;;;;3.20;0.50;;;28.60;73.70;;;;;;5030036;28;20025;-71
2023/12/01 05:33:08;;;;;;;2.30;0.82;;;28.50;74.60;;;;;;5031841;28;20033;-72
2023/12/01 05:35:36;;;;;;;2.28;0.60;;;28.70;74.40;;;;;;5032454;28;20433;-71
2023/12/01 05:38:04;;;;;;;2.78;0.50;;;28.90;74.10;;;;;;5027600;28;20032;-71
2023/12/01 05:40:38;;;;;;;4.22;0.90;;;28.70;74.40;;;;;;5035271;28;20128;-71
2023/12/01 05:43:07;;;;;;;3.60;0.50;;;28.50;74.50;;;;;;5025936;28;20033;-71
2023/12/01 05:45:37;;;;;;;2.28;0.50;;;28.40;75.30;;;;;;5029998;28;22926;-70
2023/12/01 05:48:08;;;;;;;5.22;0.68;;;28.20;76.10;;;;;;5030231;28;20457;-70
2023/12/01 05:50:35;;;;;;;3.75;0.52;;;28.10;76.60;;;;;;5030266;28;20030;-71
2023/12/01 05:53:10;;;;;;;5.85;0.70;;;28.00;76.80;;;;;;5016187;28;20037;-71
2023/12/01 05:55:38;;;;;;;5.00;1.08;;;27.80;77.70;;;;;;5030369;28;20032;-70
2023/12/01 05:58:09;;;;;;;4.05;0.60;;;27.80;78.30;;;;;;5033458;28;20508;-70
2023/12/01 06:00:37;;;;;;;5.30;0.60;;;27.50;79.20;;;;;;5032012;28;20061;-70
2023/12/01 06:03:09;;;;;;;4.03;0.75;;;27.30;79.80;;;;;;5011955;28;20390;-70
2023/12/01 06:05:38;;;;;;;4.47;0.85;;;27.30;79.90;;;;;;5013596;28;20969;-68
2023/12/01 06:08:09;;;;;;;3.65;0.70;;;27.10;81.00;;;;;;5018537;28;20064;-69
2023/12/01 06:10:37;;;;;;;2.97;0.63;;;27.20;81.00;;;;;;5035173;28;20033;-69
2023/12/01 06:13:04;;;;;;;3.72;0.60;;;27.10;81.10;;;;;;5029521;28;20471;-70
2023/12/01 06:15:32;;;;;;;3.60;0.50;;;27.20;81.10;;;;;;5019352;28;20029;-70
2023/12/01 06:18:02;;;;;;;3.65;0.70;;;27.30;81.00;;;;;;5031648;28;20036;-69
2023/12/01 06:20:31;;;;;;;5.93;0.60;;;27.10;81.70;;;;;;5019495;28;20032;-70
2023/12/01 06:23:00;;;;;;;3.42;0.90;;;27.10;82.10;;;;;;5033463;28;20115;-70
2023/12/01 06:25:31;;;;;;;2.45;0.70;;;27.10;82.50;;;;;;5033209;28;20029;-69
2023/12/01 06:28:03;;;;;;;3.30;0.70;;;26.90;82.40;;;;;;5015013;28;20526;-69
2023/12/01 06:30:35;;;;;;;4.90;0.90;;;26.90;83.30;;;;;;5019706;28;20017;-69
2023/12/01 06:33:04;;;;;;;3.67;1.00;;;27.10;84.00;;;;;;5027258;28;20462;-70
2023/12/01 06:35:35;;;;;;;3.88;0.68;;;27.20;83.60;;;;;;5027475;28;20045;-69
2023/12/01 06:38:03;;;;;;;6.00;1.10;;;27.10;83.60;;;;;;5026389;28;20026;-69
2023/12/01 06:40:33;;;;;;;6.15;0.90;;;26.90;84.00;;;;;;5026305;28;20025;-70
2023/12/01 06:43:00;;;;;;;8.95;1.25;;;26.70;84.30;;;;;;5010507;28;20487;-70
2023/12/01 06:45:28;;;;;;;2.72;0.80;;;26.60;84.80;;;;;;5011081;28;20137;-71
2023/12/01 06:47:58;;;;;;;8.68;1.10;;;26.60;85.10;;;;;;5030364;28;20025;-69
2023/12/01 06:50:26;;;;;;;4.45;0.80;;;26.60;86.00;;;;;;5029364;28;20087;-71
2023/12/01 06:52:54;;;;;;;4.75;1.17;;;26.60;85.90;;;;;;5029094;28;20136;-70
2023/12/01 06:55:22;;;;;;;5.60;1.13;;;26.50;86.30;;;;;;5029561;28;20052;-69
2023/12/01 06:57:50;;;;;;;6.38;1.38;;;26.40;86.60;;;;;;5033037;28;20057;-69
2023/12/01 07:02:59;;;;;;;7.20;0.70;;;26.00;89.00;;;;;;5031992;28;20036;-68
2023/12/01 07:05:27;;;;;;;9.35;0.98;;;26.00;89.60;;;;;;5031948;28;20044;-70
2023/12/01 07:07:59;;;;;;;8.70;0.75;;;25.80;90.00;;;;;;5027390;28;20025;-69
2023/12/01 07:10:32;;;;;;;4.63;0.70;;;25.90;89.80;;;;;;5036373;28;20029;-70
2023/12/01 07:12:59;;;;;;;7.03;0.90;;;25.80;89.90;;;;;;5032861;28;20051;-70
2023/12/01 07:15:29;;;;;;;9.00;1.27;;;25.90;90.10;;;;;;5031422;28;20056;-69
2023/12/01 07:17:58;;;;;;;5.78;0.80;;;26.10;90.00;;;;;;5031038;28;20105;-70
2023/12/01 07:20:26;;;;;;;10.90;1.90;;;26.20;89.70;;;;;;5033757;28;20060;-69
2023/12/01 07:22:54;;;;;;;4.57;0.82;;;26.20;89.10;;;;;;5032164;28;20036;-70
2023/12/01 07:25:23;;;;;;;9.15;1.00;;;26.00;89.20;;;;;;5031561;28;20033;-69
2023/12/01 07:27:54;;;;;;;5.43;0.80;;;25.90;89.80;;;;;;5035654;28;20063;-68
2023/12/01 07:30:22;;;;;;;4.95;1.42;;;25.90;89.90;;;;;;5033069;28;20029;-70
2023/12/01 07:32:50;;;;;;;5.95;1.30;;;25.80;90.10;;;;;;5034314;28;20544;-69
2023/12/01 07:35:18;;;;;;;9.63;1.00;;;25.80;90.00;;;;;;5033606;28;20025;-69
2023/12/01 07:37:47;;;;;;;7.03;0.93;;;25.60;90.20;;;;;;5029682;28;20554;-70
2023/12/01 07:40:23;;;;;;;6.43;1.13;;;25.30;90.80;;;;;;5037970;28;20021;-70
2023/12/01 07:42:52;;;;;;;3.17;0.70;;;25.20;91.00;;;;;;5030775;28;20509;-69
2023/12/01 07:45:19;;;;;;;4.20;1.00;;;24.90;91.30;;;;;;5029483;28;20076;-70
2023/12/01 07:47:48;;;;;;;4.30;1.00;;;25.00;91.50;;;;;;5031020;28;20657;-69
2023/12/01 07:50:16;;;;;;;7.82;1.92;;;25.10;91.10;;;;;;5027734;28;20064;-69
2023/12/01 07:52:48;;;;;;;3.80;0.60;;;25.20;90.90;;;;;;5028654;28;20039;-68
2023/12/01 07:55:19;;;;;;;7.40;0.95;;;24.90;91.50;;;;;;5031954;28;20514;-69
2023/12/01 07:57:47;;;;;;;9.00;1.00;;;24.70;91.90;;;;;;5024544;28;20033;-69
2023/12/01 08:00:15;;;;;;;4.80;1.10;;;24.60;92.40;;;;;;5025496;28;20050;-68
2023/12/01 08:02:51;;;;;;;6.47;1.00;;;24.60;92.30;;;;;;5025279;28;20079;-69
2023/12/01 08:05:19;;;;;;;6.53;0.93;;;24.70;92.20;;;;;;5008586;28;20439;-69
2023/12/01 08:07:53;;;;;;;5.03;0.80;;;24.60;92.30;;;;;;5025826;28;20033;-69
2023/12/01 08:10:21;;;;;;;7.72;1.10;;;24.40;92.50;;;;;;5022472;28;20033;-69
2023/12/01 08:12:51;;;;;;;4.20;0.60;;;24.40;92.60;;;;;;5024501;28;20026;-70
2023/12/01 08:15:18;;;;;;;4.70;1.05;;;24.50;92.60;;;;;;5010914;28;20033;-69
2023/12/01 08:17:46;;;;;;;4.32;0.68;;;24.50;92.40;;;;;;5024661;28;20540;-69
2023/12/01 08:20:16;;;;;;;5.45;1.25;;;24.50;92.30;;;;;;5016080;28;20036;-70
2023/12/01 08:22:46;;;;;;;4.63;0.85;;;24.40;92.40;;;;;;5031252;28;20115;-68
2023/12/01 08:25:14;;;;;;;5.60;0.80;;;24.40;92.70;;;;;;5021514;28;20046;-68
2023/12/01 08:27:42;;;;;;;6.60;0.95;;;24.40;93.00;;;;;;5015978;28;20025;-68
2023/12/01 08:30:10;;;;;;;3.88;0.90;;;24.40;93.00;;;;;;5022457;28;20026;-68
2023/12/01 08:32:38;;;;;;;8.40;1.23;;;24.40;93.00;;;;;;5027908;28;20382;-68
2023/12/01 08:35:06;;;;;;;5.75;1.00;;;24.40;93.00;;;;;;5033124;28;20029;-69
2023/12/01 08:37:33;;;;;;;4.28;1.00;;;24.20;93.50;;;;;;5020577;28;20030;-69
2023/12/01 08:40:00;;;;;;;4.70;1.00;;;24.10;93.70;;;;;;5028662;28;20903;-68
2023/12/01 08:42:28;;;;;;;8.82;1.20;;;24.00;93.80;;;;;;5025780;28;20030;-68
2023/12/01 08:44:55;;;;;;;8.85;1.65;;;24.00;93.90;;;;;;5034395;28;20044;-69
2023/12/01 08:47:23;;;;;;;11.48;1.77;;;24.00;94.00;;;;;;5026660;28;20610;-69
2023/12/01 08:49:51;;;;;;;43.72;6.57;;;24.00;94.00;;;;;;5019083;28;20025;-68
2023/12/01 08:52:18;;;;;;;9.05;0.95;;;24.00;94.20;;;;;;5036183;28;20486;-68
2023/12/01 08:54:46;;;;;;;8.90;1.20;;;23.90;94.30;;;;;;5029775;28;20075;-69
2023/12/01 08:57:13;;;;;;;7.53;1.20;;;23.80;94.60;;;;;;5031566;28;20064;-69
2023/12/01 08:59:41;;;;;;;5.43;1.10;;;23.70;94.90;;;;;;5035557;28;20045;-69
2023/12/01 09:02:08;;;;;;;11.48;1.90;;;23.60;95.10;;;;;;5016075;28;20076;-68
2023/12/01 09:04:35;;;;;;;8.32;1.20;;;23.70;95.20;;;;;;5030776;28;20049;-68
2023/12/01 09:07:04;;;;;;;6.30;1.10;;;23.70;95.20;;;;;;5014724;28;20038;-69
2023/12/01 09:09:31;;;;;;;13.55;3.10;;;23.60;95.50;;;;;;5037228;28;20032;-71
2023/12/01 09:11:59;;;;;;;6.43;1.10;;;23.70;95.60;;;;;;5012566;28;20042;-69
2023/12/01 09:14:26;;;;;;;6.13;1.45;;;23.60;95.80;;;;;;5024728;28;20025;-69
2023/12/01 09:16:54;;;;;;;8.25;1.23;;;23.40;96.10;;;;;;5031886;28;20438;-70
2023/12/01 09:19:21;;;;;;;5.68;0.90;;;23.40;96.40;;;;;;5031820;28;20025;-70
2023/12/01 09:21:48;;;;;;;7.97;1.90;;;23.50;96.40;;;;;;5034182;28;20058;-69
2023/12/01 09:24:16;;;;;;;7.05;1.52;;;23.50;96.30;;;;;;5027383;28;20127;-69
2023/12/01 09:26:44;;;;;;;77.82;19.92;;;23.50;96.50;;;;;;5033175;28;20112;-70
2023/12/01 09:29:11;;;;;;;11.90;2.65;;;23.50;96.80;;;;;;5011602;28;20025;-70
2023/12/01 09:31:46;;;;;;;6.70;1.80;;;23.50;96.60;;;;;;5028559;28;20409;-70
2023/12/01 09:34:14;;;;;;;8.73;1.55;;;23.50;96.70;;;;;;5032801;28;20037;-71
2023/12/01 09:36:47;;;;;;;16.95;4.40;;;23.50;96.90;;;;;;5031867;28;20032;-70
2023/12/01 09:39:15;;;;;;;22.73;5.30;;;23.50;97.00;;;;;;5032371;28;20115;-70
2023/12/01 09:41:43;;;;;;;13.80;2.70;;;23.50;97.10;;;;;;5012148;28;20032;-68
2023/12/01 09:44:10;;;;;;;11.43;1.60;;;23.40;97.30;;;;;;5032905;28;20045;-69
2023/12/01 09:46:39;;;;;;;8.35;1.45;;;23.40;97.20;;;;;;5012547;28;20497;-69
2023/12/01 09:49:07;;;;;;;9.00;1.83;;;23.40;97.20;;;;;;5034862;28;20104;-69
2023/12/01 09:51:36;;;;;;;10.70;1.42;;;23.40;97.40;;;;;;5027352;28;20366;-70
2023/12/01 09:54:04;;;;;;;6.90;1.10;;;23.40;97.40;;;;;;5025691;28;20064;-69
2023/12/01 09:56:32;;;;;;;7.60;1.27;;;23.50;97.40;;;;;;5028024;28;20604;-69
2023/12/01 09:59:00;;;;;;;10.30;1.48;;;23.40;97.50;;;;;;5029662;28;20371;-69
2023/12/01 10:01:28;;;;;;;10.65;1.75;;;23.30;98.00;;;;;;5022759;28;20049;-70
2023/12/01 10:03:55;;;;;;;10.15;1.40;;;23.40;98.10;;;;;;5020832;28;20123;-70
2023/12/01 10:06:23;;;;;;;10.93;2.28;;;23.30;98.00;;;;;;5029175;28;20038;-69
2023/12/01 10:08:51;;;;;;;9.82;1.75;;;23.30;98.10;;;;;;5025295;28;20037;-69
2023/12/01 10:11:25;;;;;;;17.42;2.45;;;23.30;98.30;;;;;;5024214;28;20040;-68
2023/12/01 10:13:53;;;;;;;10.25;2.08;;;23.20;98.40;;;;;;5026787;28;20123;-71
2023/12/01 10:16:21;;;;;;;8.15;1.70;;;23.20;98.10;;;;;;5028984;28;20231;-70
2023/12/01 10:19:04;;;;;;;10.80;1.63;;;23.20;98.30;;;;;;5035439;28;20163;-68
2023/12/01 10:21:45;;;;;;;7.60;1.30;;;23.20;98.40;;;;;;5028971;28;20044;-69
2023/12/01 10:24:16;;;;;;;11.60;1.58;;;23.20;98.60;;;;;;5013667;28;20045;-69
2023/12/01 10:26:48;;;;;;;10.00;1.75;;;23.10;98.70;;;;;;5030589;28;20060;-70
2023/12/01 10:29:31;;;;;;;15.00;3.17;;;23.20;98.80;;;;;;5012758;28;20398;-69
2023/12/01 10:32:01;;;;;;;8.90;1.40;;;23.20;98.80;;;;;;5034579;28;20383;-71
2023/12/01 10:34:28;;;;;;;10.88;1.58;;;23.00;98.90;;;;;;5024516;28;20021;-69
2023/12/01 10:36:56;;;;;;;18.25;4.05;;;22.90;99.20;;;;;;5022070;28;20382;-68
2023/12/01 10:39:29;;;;;;;18.33;3.05;;;23.00;99.10;;;;;;5014508;28;20086;-69
2023/12/01 10:41:58;;;;;;;16.60;2.67;;;23.10;99.00;;;;;;5030545;28;20017;-69
2023/12/01 10:44:27;;;;;;;20.38;3.50;;;23.20;98.70;;;;;;5032132;28;20095;-70
2023/12/01 10:46:56;;;;;;;15.25;2.85;;;23.10;98.60;;;;;;5028301;28;20447;-68
2023/12/01 10:49:24;;;;;;;7.72;1.40;;;23.10;98.80;;;;;;5029246;28;20018;-69
2023/12/01 10:51:55;;;;;;;13.30;2.00;;;23.00;99.00;;;;;;5034725;28;20037;-69
2023/12/01 10:54:26;;;;;;;8.48;1.60;;;22.90;99.10;;;;;;5027876;28;20517;-69
2023/12/01 10:57:11;;;;;;;12.63;2.22;;;22.90;99.10;;;;;;5026646;28;20048;-69
2023/12/01 10:59:40;;;;;;;10.95;2.25;;;22.90;99.00;;;;;;5033540;28;20049;-69
2023/12/01 11:02:11;;;;;;;8.68;1.77;;;22.90;98.90;;;;;;5032285;28;20363;-70
2023/12/01 11:04:44;;;;;;;8.60;2.20;;;22.80;98.90;;;;;;5012266;28;20046;-70
2023/12/01 11:07:17;;;;;;;7.45;2.33;;;22.80;99.10;;;;;;5035910;28;20127;-69
2023/12/01 11:10:15;;;;;;;8.95;2.08;;;22.90;98.90;;;;;;5018281;28;20362;-70
2023/12/01 11:13:10;;;;;;;12.38;1.70;;;22.80;98.90;;;;;;5028899;28;20466;-69
2023/12/01 11:15:41;;;;;;;9.55;1.67;;;22.70;99.00;;;;;;5025638;28;20150;-69
2023/12/01 11:18:11;;;;;;;8.75;1.45;;;22.90;98.80;;;;;;5024757;28;20025;-69
2023/12/01 11:20:49;;;;;;;13.77;2.40;;;22.70;98.60;;;;;;5026744;28;20108;-69
2023/12/01 11:23:24;;;;;;;7.60;1.33;;;22.80;98.60;;;;;;5026865;28;20038;-70
2023/12/01 11:25:56;;;;;;;9.20;1.60;;;22.90;98.80;;;;;;5027433;28;20109;-69
2023/12/01 11:31:08;;;;;;;6.85;1.20;;;23.00;98.40;;;;;;5022796;28;20496;-68
2023/12/01 11:33:45;;;;;;;9.10;1.35;;;22.90;97.60;;;;;;5024578;28;20030;-69
2023/12/01 11:36:23;;;;;;;7.35;1.42;;;22.90;97.00;;;;;;5014620;28;20041;-70
2023/12/01 11:39:16;;;;;;;;;;;22.90;96.40;;;;;;5021847;28;20072;-70
2023/12/01 11:41:47;;;;;;;4.13;0.95;;;22.80;96.40;;;;;;5024119;28;19960;-70
2023/12/01 11:44:26;;;;;;;9.63;1.60;;;22.80;96.30;;;;;;5023245;28;20242;-70
2023/12/01 11:47:01;;;;;;;5.47;0.90;;;22.70;96.30;;;;;;5023393;28;20037;-69
2023/12/01 11:49:30;;;;;;;5.13;0.93;;;22.70;96.30;;;;;;5020242;28;20092;-68
2023/12/01 11:52:01;;;;;;;6.72;0.77;;;22.80;96.10;;;;;;5019039;28;20072;-69
2023/12/01 11:54:38;;;;;;;4.97;1.17;;;22.80;96.00;;;;;;5028691;28;20451;-70
2023/12/01 11:57:17;;;;;;;4.47;0.60;;;22.70;96.10;;;;;;5026102;28;20358;-70
2023/12/01 11:59:45;;;;;;;3.58;0.65;;;22.80;95.90;;;;;;5026514;28;20077;-68
2023/12/01 12:02:16;;;;;;;6.65;1.00;;;22.70;96.00;;;;;;5033702;28;20109;-70
2023/12/01 12:04:47;;;;;;;6.47;0.90;;;22.70;96.00;;;;;;5026576;28;20038;-71
2023/12/01 12:07:15;;;;;;;4.28;0.80;;;22.60;96.20;;;;;;5027107;28;20018;-70
2023/12/01 12:09:44;;;;;;;3.50;1.10;;;22.50;96.00;;;;;;5031284;28;20095;-69
2023/12/01 12:12:13;;;;;;;4.10;1.20;;;22.60;95.80;;;;;;5023552;28;20064;-70
2023/12/01 12:14:41;;;;;;;4.65;1.00;;;22.40;96.10;;;;;;5018037;28;20036;-70
2023/12/01 12:17:08;;;;;;;5.78;1.10;;;22.40;96.00;;;;;;5019231;28;20026;-70
2023/12/01 12:19:47;;;;;;;5.07;1.25;;;22.50;96.10;;;;;;5019088;28;20025;-69
2023/12/01 12:22:15;;;;;;;7.57;2.00;;;22.60;96.00;;;;;;5017762;28;20021;-70
2023/12/01 12:24:46;;;;;;;6.95;0.98;;;22.60;96.00;;;;;;5027409;28;20038;-69
2023/12/01 12:27:14;;;;;;;4.60;1.08;;;22.50;96.10;;;;;;5035653;28;20105;-70
2023/12/01 12:29:41;;;;;;;2.97;0.80;;;22.50;96.00;;;;;;5039581;28;20486;-70
2023/12/01 12:32:10;;;;;;;7.35;1.20;;;22.50;96.10;;;;;;5035367;28;20036;-70
2023/12/01 12:34:39;;;;;;;8.35;1.35;;;22.40;96.40;;;;;;5036243;28;20026;-70
2023/12/01 12:37:11;;;;;;;2.78;0.95;;;22.50;96.40;;;;;;5036942;28;20036;-70
2023/12/01 12:39:38;;;;;;;3.78;0.90;;;22.50;96.30;;;;;;5040507;28;20092;-69
2023/12/01 12:42:06;;;;;;;5.85;1.23;;;22.50;96.20;;;;;;5037468;28;20026;-71
2023/12/01 12:44:34;;;;;;;2.80;0.80;;;22.50;96.10;;;;;;5038505;28;20402;-69
2023/12/01 12:47:03;;;;;;;9.02;0.80;;;22.50;96.00;;;;;;5037726;28;20024;-71
2023/12/01 12:49:36;;;;;;;2.65;0.88;;;22.40;96.20;;;;;;5035879;28;20021;-71
2023/12/01 12:52:04;;;;;;;7.43;1.00;;;22.40;96.20;;;;;;5035896;28;20026;-71
2023/12/01 12:54:32;;;;;;;4.35;1.02;;;22.40;96.10;;;;;;5034859;28;20029;-70
2023/12/01 12:56:59;;;;;;;6.50;1.52;;;22.40;96.10;;;;;;5032328;28;20375;-70
2023/12/01 12:59:26;;;;;;;3.90;1.50;;;22.30;96.40;;;;;;5036097;28;20041;-70
2023/12/01 13:01:54;;;;;;;3.25;1.45;;;22.30;96.40;;;;;;5037545;28;20034;-70